createdAt,value
2022-11-19T00:03:04.172Z,-3.21
2022-11-19T00:06:33.033Z,-3.19
2022-11-19T00:10:01.957Z,-3.21
2022-11-19T00:13:29.394Z,-3.24
2022-11-19T00:16:59.081Z,-3.27
2022-11-19T00:20:27.810Z,-3.28
2022-11-19T00:24:01.736Z,-3.28
2022-11-19T00:27:32.046Z,-3.28
2022-11-19T00:31:04.243Z,-3.31
2022-11-19T00:34:58.532Z,-3.34
2022-11-19T00:38:25.695Z,-3.37
2022-11-19T00:41:52.319Z,-3.42
2022-11-19T00:45:19.211Z,-3.49
2022-11-19T00:48:47.598Z,-3.57
2022-11-19T00:52:14.660Z,-3.63
2022-11-19T00:55:41.879Z,-3.69
2022-11-19T00:59:08.464Z,-3.75
2022-11-19T01:02:36.321Z,-3.82
2022-11-19T01:06:08.369Z,-3.84
2022-11-19T01:09:59.276Z,-3.84
2022-11-19T01:13:36.572Z,-3.83
2022-11-19T01:17:03.376Z,-3.83
2022-11-19T01:20:30.037Z,-3.82
2022-11-19T01:24:05.846Z,-3.83
2022-11-19T01:27:36.699Z,-3.85
2022-11-19T01:31:16.751Z,-3.87
2022-11-19T01:34:44.423Z,-3.90
2022-11-19T01:38:21.551Z,-3.94
2022-11-19T01:41:51.754Z,-3.98
2022-11-19T01:45:31.151Z,-3.98
2022-11-19T01:49:04.157Z,-3.98
2022-11-19T01:52:30.920Z,-3.96
2022-11-19T01:56:04.164Z,-3.94
2022-11-19T01:59:32.716Z,-3.89
2022-11-19T02:03:01.224Z,-3.83
2022-11-19T02:06:28.179Z,-3.74
2022-11-19T02:09:55.138Z,-3.70
2022-11-19T02:13:27.072Z,-3.66
2022-11-19T02:17:05.662Z,-3.67
2022-11-19T02:20:55.986Z,-3.68
2022-11-19T02:24:43.203Z,-3.67
2022-11-19T02:28:30.628Z,-3.67
2022-11-19T02:32:02.716Z,-3.68
2022-11-19T02:35:38.968Z,-3.68
2022-11-19T02:39:10.636Z,-3.69
2022-11-19T02:42:45.182Z,-3.76
2022-11-19T02:46:16.044Z,-3.82
2022-11-19T02:49:46.003Z,-3.87
2022-11-19T02:53:13.359Z,-3.91
2022-11-19T02:56:53.222Z,-3.95
2022-11-19T03:00:38.087Z,-4.02
2022-11-19T03:04:22.435Z,-4.07
2022-11-19T03:07:50.869Z,-4.08
2022-11-19T03:11:23.755Z,-4.08
2022-11-19T03:15:15.886Z,-4.07
2022-11-19T03:18:47.908Z,-4.06
2022-11-19T03:22:20.967Z,-4.06
2022-11-19T03:25:51.828Z,-4.04
2022-11-19T03:29:19.354Z,-4.01
2022-11-19T03:32:51.691Z,-3.98
2022-11-19T03:36:23.249Z,-3.95
2022-11-19T03:39:51.452Z,-3.90
2022-11-19T03:43:22.702Z,-3.87
2022-11-19T03:46:54.008Z,-3.83
2022-11-19T03:50:26.574Z,-3.77
2022-11-19T03:53:54.881Z,-3.70
2022-11-19T03:57:24.881Z,-3.64
2022-11-19T04:00:51.357Z,-3.54
2022-11-19T04:04:35.808Z,-3.43
2022-11-19T04:08:02.703Z,-3.32
2022-11-19T04:11:29.100Z,-3.22
2022-11-19T04:14:56.083Z,-3.11
2022-11-19T04:18:22.728Z,-2.99
2022-11-19T04:21:49.555Z,-2.93
2022-11-19T04:25:17.087Z,-2.87
2022-11-19T04:28:43.643Z,-2.83
2022-11-19T04:32:10.542Z,-2.85
2022-11-19T04:35:37.342Z,-2.85
2022-11-19T04:39:03.801Z,-2.85
2022-11-19T04:42:30.445Z,-2.86
2022-11-19T04:45:57.559Z,-2.87
2022-11-19T04:49:24.378Z,-2.87
2022-11-19T04:52:50.971Z,-2.87
2022-11-19T04:56:17.972Z,-2.88
2022-11-19T04:59:44.340Z,-2.88
2022-11-19T05:03:11.372Z,-2.89
2022-11-19T05:06:38.466Z,-2.91
2022-11-19T05:10:05.768Z,-2.93
2022-11-19T05:13:32.934Z,-2.94
2022-11-19T05:16:59.887Z,-2.95
2022-11-19T05:20:26.539Z,-2.96
2022-11-19T05:23:53.473Z,-2.96
2022-11-19T05:27:20.297Z,-2.97
2022-11-19T05:30:46.885Z,-2.98
2022-11-19T05:34:13.862Z,-2.97
2022-11-19T05:37:41.001Z,-2.94
2022-11-19T05:41:07.739Z,-2.88
2022-11-19T05:44:34.431Z,-2.81
2022-11-19T05:48:01.361Z,-2.74
2022-11-19T05:51:28.167Z,-2.71
2022-11-19T05:54:54.839Z,-2.66
2022-11-19T05:58:21.532Z,-2.62
2022-11-19T06:01:48.322Z,-2.63
2022-11-19T06:05:15.400Z,-2.62
2022-11-19T06:08:41.848Z,-2.60
2022-11-19T06:12:08.968Z,-2.61
2022-11-19T06:15:35.694Z,-2.67
2022-11-19T06:19:02.007Z,-2.70
2022-11-19T06:22:28.824Z,-2.68
2022-11-19T06:25:57.221Z,-2.67
2022-11-19T06:29:24.373Z,-2.66
2022-11-19T06:32:50.883Z,-2.65
2022-11-19T06:36:17.884Z,-2.67
2022-11-19T06:39:44.355Z,-2.68
2022-11-19T06:43:11.056Z,-2.69
2022-11-19T06:46:38.694Z,-2.69
2022-11-19T06:50:06.334Z,-2.68
2022-11-19T06:53:33.233Z,-2.67
2022-11-19T06:57:00.860Z,-2.69
2022-11-19T07:00:28.023Z,-2.71
2022-11-19T07:03:54.925Z,-2.71
2022-11-19T07:07:24.524Z,-2.70
2022-11-19T07:10:51.700Z,-2.66
2022-11-19T07:14:18.558Z,-2.62
2022-11-19T07:17:44.927Z,-2.56
2022-11-19T07:21:11.747Z,-2.47
2022-11-19T07:24:38.533Z,-2.35
2022-11-19T07:28:05.436Z,-2.21
2022-11-19T07:31:35.228Z,-2.09
2022-11-19T07:35:02.210Z,-2.00
2022-11-19T07:38:34.125Z,-1.91
2022-11-19T07:42:21.824Z,-1.88
2022-11-19T07:45:52.047Z,-1.85
2022-11-19T07:49:19.148Z,-1.85
2022-11-19T07:52:47.743Z,-1.85
2022-11-19T07:56:14.480Z,-1.83
2022-11-19T07:59:41.483Z,-1.84
2022-11-19T08:03:08.744Z,-1.85
2022-11-19T08:06:37.535Z,-1.84
2022-11-19T08:10:07.160Z,-1.88
2022-11-19T08:13:34.358Z,-1.89
2022-11-19T08:17:18.427Z,-1.91
2022-11-19T08:20:51.840Z,-1.93
2022-11-19T08:24:21.258Z,-1.94
2022-11-19T08:27:47.923Z,-1.95
2022-11-19T08:31:22.760Z,-1.93
2022-11-19T08:34:49.528Z,-1.92
2022-11-19T08:38:16.275Z,-1.91
2022-11-19T08:42:00.414Z,-1.88
2022-11-19T08:45:27.239Z,-1.85
2022-11-19T08:48:54.104Z,-1.76
2022-11-19T08:52:21.059Z,-1.68
2022-11-19T08:55:56.452Z,-1.62
2022-11-19T08:59:23.553Z,-1.57
2022-11-19T09:02:50.196Z,-1.53
2022-11-19T09:06:17.867Z,-1.47
2022-11-19T09:09:44.503Z,-1.44
2022-11-19T09:13:11.530Z,-1.45
2022-11-19T09:16:38.215Z,-1.44
2022-11-19T09:20:05.430Z,-1.42
2022-11-19T09:23:32.520Z,-1.46
2022-11-19T09:27:02.254Z,-1.44
2022-11-19T09:30:31.144Z,-1.42
2022-11-19T09:33:57.886Z,-1.46
2022-11-19T09:37:24.426Z,-1.49
2022-11-19T09:40:55.010Z,-1.50
2022-11-19T09:44:45.325Z,-1.50
2022-11-19T09:48:33.571Z,-1.51
2022-11-19T09:52:07.223Z,-1.49
2022-11-19T09:55:33.867Z,-1.46
2022-11-19T09:59:09.040Z,-1.44
2022-11-19T10:02:36.391Z,-1.42
2022-11-19T10:06:24.177Z,-1.36
2022-11-19T10:10:04.433Z,-1.30
2022-11-19T10:13:47.078Z,-1.23
2022-11-19T10:17:28.025Z,-1.15
2022-11-19T10:21:01.338Z,-1.05
2022-11-19T10:24:43.627Z,-1.02
2022-11-19T10:28:17.548Z,-0.97
2022-11-19T10:31:47.683Z,-0.97
2022-11-19T10:35:21.644Z,-0.96
2022-11-19T10:38:55.310Z,-0.94
2022-11-19T10:42:26.944Z,-0.96
2022-11-19T10:45:55.200Z,-0.99
2022-11-19T10:49:22.080Z,-0.98
2022-11-19T10:52:53.319Z,-0.98
2022-11-19T10:56:23.980Z,-1.00
2022-11-19T10:59:52.075Z,-1.04
2022-11-19T11:03:26.258Z,-1.11
2022-11-19T11:06:58.617Z,-1.19
2022-11-19T11:10:42.968Z,-1.25
2022-11-19T11:14:32.627Z,-1.29
2022-11-19T11:18:07.684Z,-1.30
2022-11-19T11:21:38.506Z,-1.29
2022-11-19T11:25:14.918Z,-1.26
2022-11-19T11:28:58.437Z,-1.27
2022-11-19T11:32:32.854Z,-1.26
2022-11-19T11:36:02.894Z,-1.25
2022-11-19T11:39:34.238Z,-1.27
2022-11-19T11:43:01.465Z,-1.29
2022-11-19T11:46:35.313Z,-1.33
2022-11-19T11:50:10.101Z,-1.35
2022-11-19T11:53:38.325Z,-1.34
2022-11-19T11:57:19.680Z,-1.31
2022-11-19T12:00:47.793Z,-1.34
2022-11-19T12:04:16.326Z,-1.39
2022-11-19T12:08:05.495Z,-1.44
2022-11-19T12:11:57.784Z,-1.36
2022-11-19T12:15:34.839Z,-1.33
2022-11-19T12:19:17.338Z,-1.29
2022-11-19T12:22:57.992Z,-1.24
2022-11-19T12:26:35.324Z,-1.19
2022-11-19T12:30:07.321Z,-1.15
2022-11-19T12:33:54.172Z,-1.10
2022-11-19T12:37:39.252Z,-1.11
2022-11-19T12:41:20.550Z,-1.01
2022-11-19T12:45:00.523Z,-0.95
2022-11-19T12:48:44.248Z,-0.95
2022-11-19T12:52:38.901Z,-0.98
2022-11-19T12:56:10.503Z,-0.99
2022-11-19T12:59:51.224Z,-1.06
2022-11-19T13:03:21.732Z,-1.12
2022-11-19T13:06:56.423Z,-1.18
2022-11-19T13:10:27.579Z,-1.22
2022-11-19T13:14:00.170Z,-1.24
2022-11-19T13:17:31.690Z,-1.29
2022-11-19T13:21:03.224Z,-1.34
2022-11-19T13:24:35.268Z,-1.39
2022-11-19T13:28:13.881Z,-1.41
2022-11-19T13:31:54.497Z,-1.43
2022-11-19T13:35:29.254Z,-1.46
2022-11-19T13:39:00.643Z,-1.48
2022-11-19T13:42:58.956Z,-1.46
2022-11-19T13:46:40.944Z,-1.46
2022-11-19T13:50:16.342Z,-1.42
2022-11-19T13:53:46.652Z,-1.38
2022-11-19T13:57:30.473Z,-1.31
2022-11-19T14:01:21.776Z,-1.28
2022-11-19T14:05:02.816Z,-1.31
2022-11-19T14:08:48.336Z,-1.33
2022-11-19T14:12:50.999Z,-1.35
2022-11-19T14:16:51.857Z,-1.37
2022-11-19T14:21:02.637Z,-1.45
2022-11-19T14:25:17.218Z,-1.50
2022-11-19T14:28:49.382Z,-1.53
2022-11-19T14:32:30.955Z,-1.55
2022-11-19T14:35:59.121Z,-1.57
2022-11-19T14:39:31.030Z,-1.59
2022-11-19T14:43:47.705Z,-1.62
2022-11-19T14:47:38.965Z,-1.57
2022-11-19T14:51:12.176Z,-1.54
2022-11-19T14:54:48.008Z,-1.49
2022-11-19T14:58:23.298Z,-1.43
2022-11-19T15:02:03.416Z,-1.36
2022-11-19T15:05:34.812Z,-1.31
2022-11-19T15:09:02.460Z,-1.26
2022-11-19T15:12:47.433Z,-1.23
2022-11-19T15:16:17.251Z,-1.20
2022-11-19T15:19:52.374Z,-1.18
2022-11-19T15:23:26.152Z,-1.17
2022-11-19T15:26:57.714Z,-1.18
2022-11-19T15:30:29.400Z,-1.20
2022-11-19T15:34:38.542Z,-1.23
2022-11-19T15:38:29.939Z,-1.22
2022-11-19T15:42:04.232Z,-1.21
2022-11-19T15:45:38.901Z,-1.21
2022-11-19T15:49:14.410Z,-1.23
2022-11-19T15:52:41.460Z,-1.26
2022-11-19T15:56:16.218Z,-1.28
2022-11-19T15:59:47.955Z,-1.29
2022-11-19T16:03:16.043Z,-1.28
2022-11-19T16:06:48.534Z,-1.26
2022-11-19T16:10:18.441Z,-1.21
2022-11-19T16:14:10.899Z,-1.18
2022-11-19T16:17:44.632Z,-1.14
2022-11-19T16:21:15.523Z,-1.11
2022-11-19T16:25:00.233Z,-1.04
2022-11-19T16:28:31.710Z,-1.02
2022-11-19T16:32:02.939Z,-0.97
2022-11-19T16:35:34.737Z,-0.90
2022-11-19T16:39:01.883Z,-0.88
2022-11-19T16:42:31.237Z,-0.85
2022-11-19T16:46:02.625Z,-0.83
2022-11-19T16:49:43.342Z,-0.83
2022-11-19T16:53:11.036Z,-0.87
2022-11-19T16:56:47.193Z,-0.91
2022-11-19T17:00:21.696Z,-0.95
2022-11-19T17:03:58.805Z,-0.97
2022-11-19T17:07:36.583Z,-1.00
2022-11-19T17:11:41.859Z,-1.01
2022-11-19T17:15:41.188Z,-1.02
2022-11-19T17:19:21.764Z,-1.00
2022-11-19T17:22:53.961Z,-0.96
2022-11-19T17:26:31.738Z,-0.96
2022-11-19T17:30:09.609Z,-0.98
2022-11-19T17:34:01.940Z,-0.95
2022-11-19T17:37:31.547Z,-0.87
2022-11-19T17:41:08.308Z,-0.83
2022-11-19T17:44:42.014Z,-0.79
2022-11-19T17:48:21.855Z,-0.72
2022-11-19T17:51:56.075Z,-0.65
2022-11-19T17:55:30.068Z,-0.66
2022-11-19T17:58:59.972Z,-0.66
2022-11-19T18:02:31.894Z,-0.63
2022-11-19T18:06:03.596Z,-0.65
2022-11-19T18:09:34.944Z,-0.72
2022-11-19T18:13:03.980Z,-0.79
2022-11-19T18:16:38.489Z,-0.82
2022-11-19T18:20:20.409Z,-0.81
2022-11-19T18:24:04.545Z,-0.81
2022-11-19T18:27:38.917Z,-0.87
2022-11-19T18:31:22.885Z,-0.85
2022-11-19T18:34:50.518Z,-0.84
2022-11-19T18:38:32.307Z,-0.79
2022-11-19T18:42:00.824Z,-0.74
2022-11-19T18:45:30.905Z,-0.70
2022-11-19T18:49:06.454Z,-0.66
2022-11-19T18:52:47.355Z,-0.62
2022-11-19T18:56:21.531Z,-0.54
2022-11-19T18:59:51.461Z,-0.50
2022-11-19T19:03:23.474Z,-0.44
2022-11-19T19:06:57.909Z,-0.45
2022-11-19T19:10:26.040Z,-0.50
2022-11-19T19:13:56.225Z,-0.51
2022-11-19T19:17:27.614Z,-0.54
2022-11-19T19:20:56.591Z,-0.56
2022-11-19T19:24:27.126Z,-0.58
2022-11-19T19:27:57.217Z,-0.60
2022-11-19T19:31:27.657Z,-0.63
2022-11-19T19:34:57.196Z,-0.68
2022-11-19T19:38:24.891Z,-0.75
2022-11-19T19:41:54.997Z,-0.75
2022-11-19T19:45:25.437Z,-0.73
2022-11-19T19:48:55.912Z,-0.71
2022-11-19T19:52:23.042Z,-0.66
2022-11-19T19:55:54.764Z,-0.58
2022-11-19T19:59:22.019Z,-0.52
2022-11-19T20:02:54.361Z,-0.47
2022-11-19T20:06:27.220Z,-0.40
2022-11-19T20:09:55.162Z,-0.39
2022-11-19T20:13:34.306Z,-0.39
2022-11-19T20:17:06.264Z,-0.36
2022-11-19T20:20:36.927Z,-0.39
2022-11-19T20:24:13.101Z,-0.39
2022-11-19T20:27:52.072Z,-0.40
2022-11-19T20:31:25.223Z,-0.42
2022-11-19T20:34:58.808Z,-0.46
2022-11-19T20:38:44.452Z,-0.50
2022-11-19T20:42:29.600Z,-0.57
2022-11-19T20:46:16.916Z,-0.58
2022-11-19T20:49:53.467Z,-0.60
2022-11-19T20:53:25.746Z,-0.63
2022-11-19T20:57:03.197Z,-0.65
2022-11-19T21:01:03.340Z,-0.64
2022-11-19T21:04:39.295Z,-0.62
2022-11-19T21:08:08.699Z,-0.58
2022-11-19T21:11:39.721Z,-0.56
2022-11-19T21:15:12.072Z,-0.52
2022-11-19T21:18:45.015Z,-0.48
2022-11-19T21:22:15.711Z,-0.42
2022-11-19T21:25:43.747Z,-0.40
2022-11-19T21:29:13.372Z,-0.40
2022-11-19T21:32:45.858Z,-0.39
2022-11-19T21:36:20.626Z,-0.38
2022-11-19T21:39:48.024Z,-0.40
2022-11-19T21:43:17.343Z,-0.41
2022-11-19T21:46:44.814Z,-0.43
2022-11-19T21:50:13.008Z,-0.44
2022-11-19T21:53:42.503Z,-0.44
2022-11-19T21:57:19.185Z,-0.48
2022-11-19T22:00:49.980Z,-0.52
2022-11-19T22:04:19.052Z,-0.56
2022-11-19T22:07:50.367Z,-0.56
2022-11-19T22:11:35.104Z,-0.54
2022-11-19T22:15:12.123Z,-0.54
2022-11-19T22:18:43.929Z,-0.50
2022-11-19T22:22:17.528Z,-0.45
2022-11-19T22:25:50.358Z,-0.38
2022-11-19T22:29:22.022Z,-0.31
2022-11-19T22:32:54.602Z,-0.24
2022-11-19T22:36:26.611Z,-0.18
2022-11-19T22:39:58.500Z,-0.12
2022-11-19T22:43:42.561Z,-0.11
2022-11-19T22:47:11.939Z,-0.14
2022-11-19T22:50:44.356Z,-0.16
2022-11-19T22:54:16.640Z,-0.19
2022-11-19T22:57:46.147Z,-0.25
2022-11-19T23:01:20.005Z,-0.30
2022-11-19T23:04:47.033Z,-0.32
2022-11-19T23:08:14.650Z,-0.36
2022-11-19T23:11:59.135Z,-0.38
2022-11-19T23:15:28.469Z,-0.38
2022-11-19T23:18:55.794Z,-0.39
2022-11-19T23:22:25.062Z,-0.40
2022-11-19T23:25:56.946Z,-0.37
2022-11-19T23:29:24.285Z,-0.35
2022-11-19T23:32:56.093Z,-0.33
2022-11-19T23:36:28.118Z,-0.28
2022-11-19T23:39:56.181Z,-0.26
2022-11-19T23:43:22.640Z,-0.25
2022-11-19T23:46:49.804Z,-0.23
2022-11-19T23:50:19.560Z,-0.17
2022-11-19T23:53:46.618Z,-0.13
2022-11-19T23:57:13.894Z,-0.13
